Time;durP1;ratioP1;P1;durP2;ratioP2;P2;SDS_P1;SDS_P2;PMS_P1;PMS_P2;Temp;Humidity;BMP_temperature;BMP_pressure;BME280_temperature;BME280_humidity;BME280_pressure;Samples;Min_cycle;Max_cycle;Signal;HPM_P1;HPM_P2
2022/05/04 00:01:52;;;;;;;24.60;18.40;;;;;;;;;;767022;182;938630;-64
2022/05/04 00:04:18;;;;;;;38.30;22.60;;;;;;;;;;765426;180;919480;-64
2022/05/04 00:06:44;;;;;;;26.83;21.87;;;;;;;;;;764977;182;918353;-63
2022/05/04 00:09:10;;;;;;;27.23;21.57;;;;;;;;;;781416;178;918976;-64
2022/05/04 00:11:36;;;;;;;25.30;18.17;;;;;;;;;;776964;182;918440;-63
2022/05/04 00:14:02;;;;;;;25.93;19.10;;;;;;;;;;770726;182;919084;-64
2022/05/04 00:16:28;;;;;;;26.20;19.60;;;;;;;;;;768030;182;920531;-63
2022/05/04 00:18:54;;;;;;;22.77;19.43;;;;;;;;;;780240;179;918867;-63
2022/05/04 00:21:20;;;;;;;25.80;20.03;;;;;;;;;;752932;185;919068;-63
2022/05/04 00:23:45;;;;;;;24.07;18.33;;;;;;;;;;776708;180;918909;-63
2022/05/04 00:26:11;;;;;;;26.40;20.03;;;;;;;;;;771295;177;918932;-63
2022/05/04 00:28:37;;;;;;;20.58;17.95;;;;;;;;;;774819;179;919143;-64
2022/05/04 00:31:03;;;;;;;26.50;19.50;;;;;;;;;;772253;182;918585;-63
2022/05/04 00:33:29;;;;;;;24.33;19.10;;;;;;;;;;770936;180;919195;-63
2022/05/04 00:35:55;;;;;;;25.08;19.90;;;;;;;;;;776832;182;918155;-63
2022/05/04 00:38:21;;;;;;;26.10;19.07;;;;;;;;;;769291;182;920485;-63
2022/05/04 00:40:47;;;;;;;24.50;18.77;;;;;;;;;;768634;181;1122988;-62
2022/05/04 00:43:18;;;;;;;25.30;20.20;;;;;;;;;;788596;178;919065;-63
2022/05/04 00:45:44;;;;;;;30.17;22.17;;;;;;;;;;791888;178;919267;-64
2022/05/04 00:48:10;;;;;;;29.20;20.57;;;;;;;;;;752125;186;918910;-64
2022/05/04 00:50:36;;;;;;;23.70;19.10;;;;;;;;;;777280;179;926606;-64
2022/05/04 00:53:02;;;;;;;31.80;20.83;;;;;;;;;;790501;177;919934;-63
2022/05/04 00:55:28;;;;;;;26.07;20.50;;;;;;;;;;772296;182;919879;-64
2022/05/04 01:00:25;;;;;;;30.60;21.83;;;;;;;;;;788711;179;887780;-64
2022/05/04 01:02:51;;;;;;;30.83;21.53;;;;;;;;;;775427;178;918820;-64
2022/05/04 01:05:17;;;;;;;30.93;21.27;;;;;;;;;;771710;182;920761;-64
2022/05/04 01:07:43;;;;;;;26.57;21.57;;;;;;;;;;785917;178;917786;-64
2022/05/04 01:10:09;;;;;;;26.47;20.97;;;;;;;;;;794548;177;917791;-64
2022/05/04 01:12:36;;;;;;;31.53;21.30;;;;;;;;;;775598;176;919105;-64
2022/05/04 01:15:01;;;;;;;28.33;20.27;;;;;;;;;;771738;182;919576;-64
2022/05/04 01:17:28;;;;;;;28.50;22.77;;;;;;;;;;776412;182;1015882;-64
2022/05/04 01:19:56;;;;;;;29.40;22.80;;;;;;;;;;770596;182;919676;-64
2022/05/04 01:22:22;;;;;;;28.83;23.80;;;;;;;;;;771170;182;919598;-64
2022/05/04 01:24:48;;;;;;;31.50;23.80;;;;;;;;;;780416;179;918489;-63
2022/05/04 01:27:13;;;;;;;33.72;24.50;;;;;;;;;;774476;179;919000;-63
2022/05/04 01:29:39;;;;;;;33.10;24.30;;;;;;;;;;767748;183;919513;-64
2022/05/04 01:32:06;;;;;;;41.63;25.50;;;;;;;;;;767632;182;919534;-64
2022/05/04 01:34:32;;;;;;;30.85;23.95;;;;;;;;;;775482;182;918686;-64
2022/05/04 01:36:57;;;;;;;34.10;23.80;;;;;;;;;;771278;182;919139;-64
2022/05/04 01:39:23;;;;;;;37.87;23.23;;;;;;;;;;771963;182;921770;-64
2022/05/04 01:44:21;;;;;;;32.43;22.43;;;;;;;;;;758392;185;918937;-64
2022/05/04 01:46:46;;;;;;;32.73;23.37;;;;;;;;;;775964;177;918428;-63
2022/05/04 01:49:12;;;;;;;33.60;25.03;;;;;;;;;;769869;176;919658;-64
2022/05/04 01:51:38;;;;;;;34.50;24.27;;;;;;;;;;783054;177;919031;-64
2022/05/04 01:54:04;;;;;;;34.90;24.63;;;;;;;;;;772739;181;923842;-64
2022/05/04 01:56:30;;;;;;;34.80;23.60;;;;;;;;;;770508;178;919869;-64
2022/05/04 01:58:56;;;;;;;31.10;23.10;;;;;;;;;;774507;178;917973;-64
2022/05/04 02:01:21;;;;;;;32.47;23.27;;;;;;;;;;770661;182;927898;-64
2022/05/04 02:03:47;;;;;;;35.90;23.90;;;;;;;;;;776244;177;919519;-63
2022/05/04 02:06:13;;;;;;;37.80;26.70;;;;;;;;;;772616;179;919130;-64
2022/05/04 02:08:41;;;;;;;27.40;20.27;;;;;;;;;;768531;182;919705;-64
2022/05/04 02:11:05;;;;;;;32.47;20.60;;;;;;;;;;765320;183;919526;-63
2022/05/04 02:13:31;;;;;;;26.53;19.33;;;;;;;;;;768325;182;920834;-64
2022/05/04 02:15:57;;;;;;;26.30;20.17;;;;;;;;;;774755;182;918167;-63
2022/05/04 02:18:22;;;;;;;33.30;19.73;;;;;;;;;;769225;182;921161;-64
2022/05/04 02:20:48;;;;;;;26.43;21.00;;;;;;;;;;769409;182;920074;-64
2022/05/04 02:23:14;;;;;;;26.87;22.10;;;;;;;;;;773356;182;919019;-63
2022/05/04 02:25:40;;;;;;;28.57;22.53;;;;;;;;;;767745;182;918960;-64
2022/05/04 02:28:06;;;;;;;35.07;23.63;;;;;;;;;;767637;180;917541;-64
2022/05/04 02:30:32;;;;;;;31.53;23.20;;;;;;;;;;772930;181;919294;-64
2022/05/04 02:32:57;;;;;;;33.57;24.20;;;;;;;;;;766713;182;922592;-63
2022/05/04 02:37:55;;;;;;;34.67;24.63;;;;;;;;;;767279;182;917549;-64
2022/05/04 02:40:21;;;;;;;34.77;24.40;;;;;;;;;;777376;179;915602;-64
2022/05/04 02:42:46;;;;;;;32.13;24.70;;;;;;;;;;778142;177;916977;-64
2022/05/04 02:45:12;;;;;;;29.83;21.30;;;;;;;;;;768367;182;916549;-63
2022/05/04 02:47:38;;;;;;;28.33;21.98;;;;;;;;;;772677;182;921451;-63
2022/05/04 02:50:04;;;;;;;29.03;21.20;;;;;;;;;;767984;182;922858;-64
2022/05/04 02:52:30;;;;;;;31.37;22.53;;;;;;;;;;765678;182;918166;-64
2022/05/04 02:54:56;;;;;;;32.60;23.03;;;;;;;;;;768867;177;914041;-63
2022/05/04 02:57:22;;;;;;;32.85;23.33;;;;;;;;;;772143;179;914662;-64
2022/05/04 02:59:48;;;;;;;31.80;23.63;;;;;;;;;;768827;181;920286;-64
2022/05/04 03:04:45;;;;;;;35.67;27.37;;;;;;;;;;774352;181;914544;-64
2022/05/04 03:07:11;;;;;;;35.80;27.10;;;;;;;;;;768624;182;916933;-64
2022/05/04 03:09:37;;;;;;;37.03;26.50;;;;;;;;;;768100;182;918853;-63
2022/05/04 03:12:04;;;;;;;39.72;27.70;;;;;;;;;;771195;182;918631;-63
2022/05/04 03:14:30;;;;;;;35.30;25.80;;;;;;;;;;772741;179;919299;-63
2022/05/04 03:16:55;;;;;;;31.43;25.40;;;;;;;;;;767353;182;919602;-63
2022/05/04 03:19:21;;;;;;;36.30;25.53;;;;;;;;;;765433;182;1013927;-63
2022/05/04 03:21:47;;;;;;;36.60;25.10;;;;;;;;;;771513;182;918729;-63
2022/05/04 03:24:13;;;;;;;35.53;24.27;;;;;;;;;;767961;182;921195;-64
2022/05/04 03:26:39;;;;;;;37.20;27.43;;;;;;;;;;766152;182;1011299;-63
2022/05/04 03:29:05;;;;;;;37.73;26.43;;;;;;;;;;776988;179;923086;-65
2022/05/04 03:31:31;;;;;;;35.83;26.93;;;;;;;;;;766947;182;914607;-65
2022/05/04 03:33:56;;;;;;;39.10;26.73;;;;;;;;;;762918;182;1636184;-64
2022/05/04 03:36:22;;;;;;;38.63;27.27;;;;;;;;;;772055;182;920702;-64
2022/05/04 03:38:48;;;;;;;41.40;28.30;;;;;;;;;;767411;182;1014959;-64
2022/05/04 03:41:14;;;;;;;40.50;27.60;;;;;;;;;;769396;182;917145;-64
2022/05/04 03:43:40;;;;;;;35.57;26.00;;;;;;;;;;767576;182;911719;-62
2022/05/04 03:46:25;;;;;;;36.60;28.20;;;;;;;;;;775832;177;912003;-64
2022/05/04 03:48:58;;;;;;;40.47;26.90;;;;;;;;;;772088;175;919022;-64
2022/05/04 03:51:24;;;;;;;55.10;38.65;;;;;;;;;;770357;179;919416;-64
2022/05/04 03:53:50;;;;;;;64.77;37.83;;;;;;;;;;765015;179;919137;-64
2022/05/04 03:56:16;;;;;;;49.80;34.47;;;;;;;;;;777312;177;919137;-64
2022/05/04 03:58:42;;;;;;;37.43;29.03;;;;;;;;;;772153;179;917145;-64
2022/05/04 04:01:07;;;;;;;40.33;32.70;;;;;;;;;;768703;182;1020982;-64
2022/05/04 04:03:34;;;;;;;48.60;32.83;;;;;;;;;;770885;179;919033;-65
2022/05/04 04:06:01;;;;;;;39.00;30.20;;;;;;;;;;781056;176;918927;-65
2022/05/04 04:08:26;;;;;;;38.23;28.40;;;;;;;;;;772829;180;920190;-64
2022/05/04 04:10:52;;;;;;;35.30;27.50;;;;;;;;;;770943;181;930236;-64
2022/05/04 04:13:18;;;;;;;37.37;27.40;;;;;;;;;;773347;181;919713;-64
2022/05/04 04:15:43;;;;;;;47.50;33.57;;;;;;;;;;769826;182;919432;-65
2022/05/04 04:18:09;;;;;;;42.37;29.70;;;;;;;;;;779303;177;648724;-64
2022/05/04 04:23:07;;;;;;;40.10;28.00;;;;;;;;;;766440;182;1021511;-64
2022/05/04 04:25:32;;;;;;;36.97;27.07;;;;;;;;;;772288;179;919416;-64
2022/05/04 04:27:58;;;;;;;41.07;30.10;;;;;;;;;;772163;182;918936;-65
2022/05/04 04:30:24;;;;;;;43.77;28.67;;;;;;;;;;774569;182;919461;-64
2022/05/04 04:32:50;;;;;;;35.20;26.67;;;;;;;;;;770429;182;918684;-65
2022/05/04 04:35:16;;;;;;;36.17;27.77;;;;;;;;;;768521;182;918733;-65
2022/05/04 04:37:42;;;;;;;41.37;28.37;;;;;;;;;;769974;182;919213;-63
2022/05/04 04:40:08;;;;;;;37.27;27.10;;;;;;;;;;779344;179;919150;-64
2022/05/04 04:42:34;;;;;;;36.17;27.00;;;;;;;;;;767982;182;919111;-64
2022/05/04 04:45:00;;;;;;;34.15;25.17;;;;;;;;;;768211;182;919666;-65
2022/05/04 04:47:26;;;;;;;39.10;27.83;;;;;;;;;;774364;182;918936;-64
2022/05/04 04:49:51;;;;;;;34.85;25.25;;;;;;;;;;774508;175;919550;-65
2022/05/04 04:52:17;;;;;;;38.13;25.13;;;;;;;;;;765160;183;1020980;-65
2022/05/04 04:54:44;;;;;;;28.97;24.20;;;;;;;;;;770233;182;919619;-65
2022/05/04 04:57:09;;;;;;;30.97;23.60;;;;;;;;;;764864;183;918411;-66
2022/05/04 04:59:35;;;;;;;27.67;22.57;;;;;;;;;;766744;182;918740;-64
2022/05/04 05:02:01;;;;;;;26.97;21.50;;;;;;;;;;772762;182;919123;-65
2022/05/04 05:04:26;;;;;;;29.00;22.13;;;;;;;;;;772471;182;921007;-67
2022/05/04 05:06:52;;;;;;;26.25;22.52;;;;;;;;;;769106;182;919208;-65
2022/05/04 05:09:18;;;;;;;31.83;23.67;;;;;;;;;;768418;182;920561;-65
2022/05/04 05:11:44;;;;;;;30.17;22.83;;;;;;;;;;773780;182;915738;-64
2022/05/04 05:16:42;;;;;;;30.23;23.00;;;;;;;;;;768692;182;915140;-65
2022/05/04 05:19:07;;;;;;;29.57;22.10;;;;;;;;;;772695;182;919752;-64
2022/05/04 05:21:34;;;;;;;27.53;20.37;;;;;;;;;;769619;179;919147;-65
2022/05/04 05:23:59;;;;;;;31.87;22.40;;;;;;;;;;768803;181;919115;-65
2022/05/04 05:26:25;;;;;;;26.53;21.30;;;;;;;;;;768777;181;921788;-64
2022/05/04 05:28:51;;;;;;;28.53;21.10;;;;;;;;;;775995;181;919067;-64
2022/05/04 05:31:17;;;;;;;27.70;21.50;;;;;;;;;;775190;182;633916;-64
2022/05/04 05:33:45;;;;;;;30.00;22.20;;;;;;;;;;773312;182;642652;-66
2022/05/04 05:36:08;;;;;;;30.20;21.87;;;;;;;;;;772482;182;1023180;-63
2022/05/04 05:38:34;;;;;;;31.50;23.03;;;;;;;;;;767211;182;922862;-63
2022/05/04 05:41:01;;;;;;;28.83;21.50;;;;;;;;;;768204;182;919505;-64
2022/05/04 05:43:26;;;;;;;24.53;19.90;;;;;;;;;;772799;182;918971;-64
2022/05/04 05:45:52;;;;;;;30.67;19.73;;;;;;;;;;776640;177;918892;-64
2022/05/04 05:48:19;;;;;;;26.80;19.97;;;;;;;;;;768458;182;919827;-64
2022/05/04 05:50:43;;;;;;;25.50;19.70;;;;;;;;;;768227;182;921618;-64
2022/05/04 05:53:09;;;;;;;27.20;19.07;;;;;;;;;;771992;182;920190;-64
2022/05/04 05:55:35;;;;;;;24.20;20.40;;;;;;;;;;767491;182;919249;-65
2022/05/04 05:58:01;;;;;;;24.07;18.43;;;;;;;;;;766926;182;1022386;-64
2022/05/04 06:00:27;;;;;;;25.63;19.33;;;;;;;;;;773031;182;918982;-64
2022/05/04 06:02:53;;;;;;;26.63;19.00;;;;;;;;;;765929;182;918953;-64
2022/05/04 06:05:19;;;;;;;25.33;17.30;;;;;;;;;;767176;182;919231;-64
2022/05/04 06:07:44;;;;;;;28.40;20.73;;;;;;;;;;776303;179;919754;-63
2022/05/04 06:10:10;;;;;;;23.87;19.08;;;;;;;;;;770528;175;919654;-64
2022/05/04 06:12:38;;;;;;;25.20;18.10;;;;;;;;;;764833;183;919218;-64
2022/05/04 06:15:02;;;;;;;25.93;19.97;;;;;;;;;;772371;182;1021798;-64
2022/05/04 06:17:28;;;;;;;35.72;19.67;;;;;;;;;;767340;182;921014;-64
2022/05/04 06:19:54;;;;;;;27.27;20.30;;;;;;;;;;767154;182;919497;-64
2022/05/04 06:22:19;;;;;;;24.10;20.03;;;;;;;;;;767679;182;919567;-64
2022/05/04 06:24:45;;;;;;;25.50;19.10;;;;;;;;;;773318;182;918939;-64
2022/05/04 06:27:11;;;;;;;22.93;19.20;;;;;;;;;;768297;182;919352;-64
2022/05/04 06:34:40;;;;;;;27.23;20.47;;;;;;;;;;775632;181;918549;-64
2022/05/04 06:37:06;;;;;;;22.63;19.20;;;;;;;;;;770677;181;919200;-63
2022/05/04 06:39:32;;;;;;;25.63;18.63;;;;;;;;;;768327;182;919676;-64
2022/05/04 06:41:58;;;;;;;23.30;19.53;;;;;;;;;;774766;182;617441;-64
2022/05/04 06:44:24;;;;;;;25.80;20.10;;;;;;;;;;768542;181;918201;-64
2022/05/04 06:46:50;;;;;;;26.20;20.77;;;;;;;;;;769116;182;919156;-66
2022/05/04 06:49:15;;;;;;;23.37;20.27;;;;;;;;;;773247;182;919479;-64
2022/05/04 06:51:42;;;;;;;28.02;21.20;;;;;;;;;;767248;183;919424;-65
2022/05/04 06:54:08;;;;;;;27.00;21.87;;;;;;;;;;767321;182;920436;-65
2022/05/04 06:56:33;;;;;;;28.10;21.33;;;;;;;;;;765584;183;919350;-64
2022/05/04 06:58:59;;;;;;;26.87;20.40;;;;;;;;;;765745;180;918434;-64
2022/05/04 07:01:25;;;;;;;27.57;22.07;;;;;;;;;;768698;182;919538;-65
2022/05/04 07:03:50;;;;;;;26.70;22.30;;;;;;;;;;757215;185;920418;-65
2022/05/04 07:06:16;;;;;;;25.20;21.37;;;;;;;;;;762472;185;923577;-64
2022/05/04 07:08:42;;;;;;;26.90;21.70;;;;;;;;;;765930;182;918323;-64
2022/05/04 07:11:08;;;;;;;27.20;21.90;;;;;;;;;;760355;183;918278;-65
2022/05/04 07:13:34;;;;;;;25.47;21.47;;;;;;;;;;762481;185;915055;-64
2022/05/04 07:16:00;;;;;;;28.40;23.00;;;;;;;;;;770637;179;921461;-64
2022/05/04 07:18:26;;;;;;;24.93;22.33;;;;;;;;;;785335;178;916937;-65
2022/05/04 07:20:52;;;;;;;29.83;23.83;;;;;;;;;;789168;177;919366;-63
2022/05/04 07:23:18;;;;;;;30.00;24.07;;;;;;;;;;774874;179;919415;-64
2022/05/04 07:25:44;;;;;;;30.20;22.30;;;;;;;;;;779335;177;919890;-63
2022/05/04 07:28:10;;;;;;;35.27;23.97;;;;;;;;;;778197;178;919476;-63
2022/05/04 07:30:35;;;;;;;32.10;24.80;;;;;;;;;;776391;182;919497;-63
2022/05/04 07:33:02;;;;;;;36.30;27.60;;;;;;;;;;770263;182;919085;-63
2022/05/04 07:35:27;;;;;;;31.97;25.60;;;;;;;;;;772811;182;889000;-64
2022/05/04 07:37:53;;;;;;;33.23;26.43;;;;;;;;;;779622;182;619089;-63
2022/05/04 07:42:50;;;;;;;35.67;25.50;;;;;;;;;;784563;176;622661;-64
2022/05/04 07:45:17;;;;;;;32.80;24.80;;;;;;;;;;784887;177;625153;-64
2022/05/04 07:47:42;;;;;;;28.20;24.50;;;;;;;;;;790695;177;919040;-64
2022/05/04 07:50:08;;;;;;;34.57;24.77;;;;;;;;;;774829;178;919474;-63
2022/05/04 07:52:34;;;;;;;33.30;25.60;;;;;;;;;;781479;178;1069866;-64
2022/05/04 07:55:00;;;;;;;35.37;24.57;;;;;;;;;;777219;182;919728;-63
2022/05/04 07:57:25;;;;;;;29.50;24.20;;;;;;;;;;772975;182;919573;-63
2022/05/04 08:04:54;;;;;;;30.43;24.13;;;;;;;;;;755601;185;919457;-64
2022/05/04 08:07:20;;;;;;;33.40;24.77;;;;;;;;;;772042;180;919946;-66
2022/05/04 08:09:46;;;;;;;31.53;24.40;;;;;;;;;;757911;182;942833;-64
2022/05/04 08:12:13;;;;;;;30.98;24.67;;;;;;;;;;760172;185;924446;-63
2022/05/04 08:14:39;;;;;;;33.67;25.83;;;;;;;;;;752423;185;921780;-64
2022/05/04 08:17:05;;;;;;;31.13;24.70;;;;;;;;;;761190;184;919743;-64
2022/05/04 08:19:30;;;;;;;27.90;23.90;;;;;;;;;;777251;180;919386;-63
2022/05/04 08:21:56;;;;;;;31.30;23.40;;;;;;;;;;776304;182;920677;-64
2022/05/04 08:24:21;;;;;;;30.63;25.30;;;;;;;;;;771857;181;920618;-64
2022/05/04 08:26:47;;;;;;;30.93;25.60;;;;;;;;;;770953;182;920059;-64
2022/05/04 08:29:14;;;;;;;35.30;26.70;;;;;;;;;;776064;182;918917;-63
2022/05/04 08:31:39;;;;;;;34.73;26.27;;;;;;;;;;774947;179;914960;-63
2022/05/04 08:34:05;;;;;;;34.13;25.87;;;;;;;;;;780685;178;916780;-63
2022/05/04 08:36:31;;;;;;;31.50;26.97;;;;;;;;;;776024;182;913538;-63
2022/05/04 08:38:57;;;;;;;28.60;24.30;;;;;;;;;;770504;182;920183;-64
2022/05/04 08:41:23;;;;;;;32.50;26.20;;;;;;;;;;770996;182;919397;-64
2022/05/04 08:43:49;;;;;;;30.27;24.70;;;;;;;;;;771741;182;919209;-64
2022/05/04 08:46:15;;;;;;;32.93;24.77;;;;;;;;;;757274;185;919486;-64
2022/05/04 08:48:41;;;;;;;30.33;23.70;;;;;;;;;;770206;182;919128;-64
2022/05/04 08:51:07;;;;;;;32.80;26.55;;;;;;;;;;771579;182;919406;-64
2022/05/04 08:53:33;;;;;;;30.63;26.90;;;;;;;;;;773245;182;919159;-63
2022/05/04 08:55:59;;;;;;;36.33;27.10;;;;;;;;;;767897;181;919065;-63
2022/05/04 08:58:24;;;;;;;34.47;27.50;;;;;;;;;;769041;181;919529;-62
2022/05/04 09:00:50;;;;;;;37.60;28.20;;;;;;;;;;773578;181;919563;-63
2022/05/04 09:03:18;;;;;;;30.10;24.97;;;;;;;;;;769280;181;919330;-63
2022/05/04 09:05:42;;;;;;;34.90;26.12;;;;;;;;;;768356;182;920700;-63
2022/05/04 09:08:09;;;;;;;33.20;27.93;;;;;;;;;;788143;177;921742;-63
2022/05/04 09:10:34;;;;;;;39.23;26.70;;;;;;;;;;783522;177;917367;-63
2022/05/04 09:13:00;;;;;;;31.67;25.80;;;;;;;;;;783705;175;1113802;-63
2022/05/04 09:15:26;;;;;;;38.87;27.67;;;;;;;;;;783516;176;919224;-63
2022/05/04 09:18:08;;;;;;;29.03;24.83;;;;;;;;;;785872;178;919304;-64
2022/05/04 09:23:09;;;;;;;32.13;27.47;;;;;;;;;;771428;182;920124;-64
2022/05/04 09:25:36;;;;;;;31.73;26.67;;;;;;;;;;784313;175;629202;-65
2022/05/04 09:28:02;;;;;;;37.00;27.50;;;;;;;;;;779643;178;920280;-65
2022/05/04 09:30:28;;;;;;;33.37;28.20;;;;;;;;;;778410;182;920289;-64
2022/05/04 09:32:54;;;;;;;33.60;27.20;;;;;;;;;;768759;182;1122872;-64
2022/05/04 09:35:19;;;;;;;33.83;26.87;;;;;;;;;;767732;182;919224;-64
2022/05/04 09:45:23;;;;;;;32.43;28.80;;;;;;;;;;767125;182;919699;-65
2022/05/04 09:47:48;;;;;;;41.00;30.62;;;;;;;;;;767944;182;919056;-64
2022/05/04 09:50:14;;;;;;;33.63;26.40;;;;;;;;;;774684;179;919540;-65
2022/05/04 09:52:41;;;;;;;35.33;26.67;;;;;;;;;;766676;182;918263;-65
2022/05/04 09:55:06;;;;;;;32.80;26.73;;;;;;;;;;767589;182;918772;-67
2022/05/04 09:57:32;;;;;;;39.40;27.10;;;;;;;;;;772548;182;919422;-64
2022/05/04 09:59:58;;;;;;;34.57;25.23;;;;;;;;;;767254;182;919105;-64
2022/05/04 10:02:24;;;;;;;32.07;27.10;;;;;;;;;;767796;182;1022919;-64
2022/05/04 10:04:49;;;;;;;35.80;28.93;;;;;;;;;;773370;182;919719;-64
2022/05/04 10:07:15;;;;;;;36.77;28.93;;;;;;;;;;772818;177;918850;-64
2022/05/04 10:09:41;;;;;;;31.97;27.07;;;;;;;;;;771873;177;918801;-65
2022/05/04 10:12:08;;;;;;;52.90;38.83;;;;;;;;;;773869;181;919279;-64
2022/05/04 10:14:33;;;;;;;38.43;29.70;;;;;;;;;;772153;181;919451;-64
2022/05/04 10:17:01;;;;;;;50.03;35.73;;;;;;;;;;767473;182;919539;-64
2022/05/04 10:19:29;;;;;;;43.38;31.40;;;;;;;;;;767367;182;1020984;-65
2022/05/04 10:21:53;;;;;;;40.57;30.40;;;;;;;;;;773343;182;920755;-66
2022/05/04 10:24:19;;;;;;;40.83;33.57;;;;;;;;;;766661;182;919435;-65
2022/05/04 10:26:45;;;;;;;42.03;34.33;;;;;;;;;;781172;175;958270;-65
2022/05/04 10:31:52;;;;;;;40.20;29.47;;;;;;;;;;771506;179;919912;-67
2022/05/04 10:34:17;;;;;;;33.92;28.70;;;;;;;;;;769319;182;920210;-65
2022/05/04 10:36:43;;;;;;;38.27;32.17;;;;;;;;;;767895;182;919515;-64
2022/05/04 10:39:09;;;;;;;40.57;31.50;;;;;;;;;;774157;182;897709;-65
2022/05/04 10:41:35;;;;;;;38.53;30.77;;;;;;;;;;766818;182;920533;-66
2022/05/04 10:44:01;;;;;;;37.53;27.47;;;;;;;;;;767156;182;923675;-66
2022/05/04 10:46:28;;;;;;;40.10;28.00;;;;;;;;;;767978;180;919280;-68
2022/05/04 10:48:58;;;;;;;36.60;26.43;;;;;;;;;;774083;182;919057;-67
2022/05/04 10:51:24;;;;;;;37.60;27.20;;;;;;;;;;772469;182;919489;-67
2022/05/04 10:53:50;;;;;;;32.28;26.33;;;;;;;;;;771663;182;919252;-67
2022/05/04 10:56:18;;;;;;;33.50;25.93;;;;;;;;;;773407;182;919231;-67
2022/05/04 10:58:46;;;;;;;36.93;27.53;;;;;;;;;;777338;177;918782;-66
2022/05/04 11:01:12;;;;;;;29.60;25.40;;;;;;;;;;769762;177;919705;-69
2022/05/04 11:03:38;;;;;;;34.92;27.80;;;;;;;;;;772654;179;919676;-67
2022/05/04 11:06:08;;;;;;;31.67;26.50;;;;;;;;;;769508;182;919436;-68
2022/05/04 11:08:35;;;;;;;36.43;24.70;;;;;;;;;;766887;179;930071;-67
2022/05/04 11:11:00;;;;;;;33.63;26.53;;;;;;;;;;768838;182;919055;-66
2022/05/04 11:13:26;;;;;;;35.77;28.50;;;;;;;;;;766303;182;919616;-67
2022/05/04 11:15:53;;;;;;;31.73;23.90;;;;;;;;;;763279;180;901915;-67
2022/05/04 11:18:19;;;;;;;34.80;26.37;;;;;;;;;;758439;183;920480;-67
2022/05/04 11:20:45;;;;;;;29.43;22.93;;;;;;;;;;769492;181;919439;-68
2022/05/04 11:23:11;;;;;;;29.00;25.20;;;;;;;;;;774468;182;919209;-68
2022/05/04 11:25:37;;;;;;;28.83;25.73;;;;;;;;;;788737;177;634192;-67
2022/05/04 11:28:03;;;;;;;33.80;28.00;;;;;;;;;;776713;181;636717;-68
2022/05/04 11:30:28;;;;;;;35.13;25.60;;;;;;;;;;776417;182;919592;-67
2022/05/04 11:32:54;;;;;;;44.63;31.30;;;;;;;;;;772375;182;919841;-67
2022/05/04 11:35:20;;;;;;;33.70;28.13;;;;;;;;;;771737;182;919350;-66
2022/05/04 11:37:46;;;;;;;32.80;26.33;;;;;;;;;;776574;182;609142;-68
2022/05/04 11:40:14;;;;;;;40.57;28.67;;;;;;;;;;777948;179;632836;-68
2022/05/04 11:42:38;;;;;;;37.10;29.30;;;;;;;;;;768170;182;919282;-68
2022/05/04 11:45:04;;;;;;;34.53;27.87;;;;;;;;;;769064;182;918834;-68
2022/05/04 11:47:30;;;;;;;38.80;27.27;;;;;;;;;;759747;185;919993;-69
2022/05/04 11:49:56;;;;;;;33.63;26.00;;;;;;;;;;780624;178;919285;-68
2022/05/04 11:52:22;;;;;;;36.00;24.10;;;;;;;;;;771405;182;919659;-68
2022/05/04 11:54:48;;;;;;;33.23;26.33;;;;;;;;;;776752;182;919260;-68
2022/05/04 11:57:14;;;;;;;32.53;23.53;;;;;;;;;;770679;182;919625;-68
2022/05/04 11:59:39;;;;;;;26.20;21.05;;;;;;;;;;770458;182;942405;-69
2022/05/04 12:02:06;;;;;;;31.37;25.30;;;;;;;;;;778408;182;918174;-68
2022/05/04 12:04:33;;;;;;;36.10;24.67;;;;;;;;;;769441;182;921849;-68
2022/05/04 12:06:57;;;;;;;28.17;21.60;;;;;;;;;;770556;182;920996;-70
2022/05/04 12:09:23;;;;;;;26.00;23.00;;;;;;;;;;770651;182;919299;-68
2022/05/04 12:11:49;;;;;;;28.53;23.03;;;;;;;;;;776115;182;919932;-69
2022/05/04 12:14:15;;;;;;;28.80;23.63;;;;;;;;;;766217;182;921202;-70
2022/05/04 12:16:41;;;;;;;25.63;20.77;;;;;;;;;;765736;182;918150;-68
2022/05/04 12:19:07;;;;;;;27.57;19.40;;;;;;;;;;774027;182;920419;-69
2022/05/04 12:21:33;;;;;;;21.30;17.77;;;;;;;;;;770360;182;916400;-70
2022/05/04 12:24:00;;;;;;;20.67;15.50;;;;;;;;;;770557;182;916228;-70
2022/05/04 12:26:24;;;;;;;25.73;21.60;;;;;;;;;;776527;182;919956;-69
2022/05/04 12:34:04;;;;;;;27.87;21.07;;;;;;;;;;785287;178;938873;-68
2022/05/04 12:36:30;;;;;;;24.90;19.83;;;;;;;;;;771695;181;919595;-70
2022/05/04 12:38:56;;;;;;;22.83;18.50;;;;;;;;;;791149;177;919224;-68
2022/05/04 12:41:22;;;;;;;24.77;18.60;;;;;;;;;;774927;178;921608;-69
2022/05/04 12:43:48;;;;;;;22.93;19.07;;;;;;;;;;770571;182;919566;-68
2022/05/04 12:46:15;;;;;;;20.27;17.60;;;;;;;;;;771224;182;918413;-69
2022/05/04 12:48:39;;;;;;;19.53;16.20;;;;;;;;;;773611;182;816753;-70
2022/05/04 12:51:07;;;;;;;16.03;11.00;;;;;;;;;;771136;182;919579;-69
2022/05/04 12:53:31;;;;;;;14.50;10.13;;;;;;;;;;772913;182;918022;-72
2022/05/04 12:58:29;;;;;;;12.90;9.10;;;;;;;;;;781738;177;918130;-70
2022/05/04 13:00:55;;;;;;;11.30;7.20;;;;;;;;;;768098;182;934091;-70
2022/05/04 13:03:20;;;;;;;9.00;6.57;;;;;;;;;;775377;182;886111;-71
2022/05/04 13:05:46;;;;;;;8.07;6.83;;;;;;;;;;765419;182;919513;-70
2022/05/04 13:08:12;;;;;;;12.75;7.55;;;;;;;;;;766758;182;919518;-69
2022/05/04 13:10:38;;;;;;;8.13;7.27;;;;;;;;;;765678;182;919288;-69
2022/05/04 13:13:04;;;;;;;8.30;6.97;;;;;;;;;;772024;182;919421;-70
2022/05/04 13:15:31;;;;;;;8.07;7.27;;;;;;;;;;766576;182;925402;-71
2022/05/04 13:17:55;;;;;;;9.00;7.50;;;;;;;;;;767548;182;919548;-70
2022/05/04 13:20:21;;;;;;;8.23;6.43;;;;;;;;;;775966;182;919148;-70
2022/05/04 13:22:47;;;;;;;10.97;7.43;;;;;;;;;;770372;182;919422;-70
2022/05/04 13:25:15;;;;;;;8.40;7.53;;;;;;;;;;774462;179;919935;-69
2022/05/04 13:27:39;;;;;;;8.80;7.90;;;;;;;;;;773114;179;919078;-70
2022/05/04 13:30:05;;;;;;;11.20;8.57;;;;;;;;;;772275;182;629502;-70
2022/05/04 13:32:31;;;;;;;8.33;7.17;;;;;;;;;;769195;182;923290;-70
2022/05/04 13:34:57;;;;;;;20.48;9.15;;;;;;;;;;769373;182;918561;-68
2022/05/04 13:37:23;;;;;;;12.00;8.20;;;;;;;;;;770274;182;1022351;-69
2022/05/04 13:39:49;;;;;;;9.33;8.33;;;;;;;;;;771262;182;917234;-70
2022/05/04 13:42:15;;;;;;;9.17;7.87;;;;;;;;;;782799;178;918374;-69
2022/05/04 13:44:40;;;;;;;13.20;10.50;;;;;;;;;;793171;177;626321;-70
2022/05/04 13:47:06;;;;;;;12.53;10.57;;;;;;;;;;778649;178;919377;-69
2022/05/04 13:49:32;;;;;;;15.67;9.93;;;;;;;;;;769842;181;916527;-70
2022/05/04 13:54:30;;;;;;;16.63;10.63;;;;;;;;;;769837;182;918469;-70
2022/05/04 13:56:55;;;;;;;18.67;10.17;;;;;;;;;;768229;182;919231;-70
2022/05/04 13:59:21;;;;;;;15.52;10.02;;;;;;;;;;768402;182;918364;-69
2022/05/04 14:01:47;;;;;;;12.30;8.50;;;;;;;;;;775396;182;918766;-69
2022/05/04 14:04:13;;;;;;;9.90;8.73;;;;;;;;;;770408;182;919024;-69
2022/05/04 14:06:39;;;;;;;12.40;9.70;;;;;;;;;;768972;182;920027;-68
2022/05/04 14:09:05;;;;;;;12.43;9.97;;;;;;;;;;771532;182;915675;-70
2022/05/04 14:11:31;;;;;;;12.55;11.23;;;;;;;;;;767201;180;915881;-70
2022/05/04 14:16:43;;;;;;;14.60;9.83;;;;;;;;;;764010;182;1018583;-69
2022/05/04 14:19:09;;;;;;;17.63;11.20;;;;;;;;;;768393;182;914982;-68
2022/05/04 14:21:35;;;;;;;12.90;9.57;;;;;;;;;;766678;181;915262;-67
2022/05/04 14:24:01;;;;;;;10.00;8.70;;;;;;;;;;767607;179;916166;-67
2022/05/04 14:26:26;;;;;;;13.10;8.97;;;;;;;;;;767819;179;924500;-69
2022/05/04 14:28:52;;;;;;;13.60;10.23;;;;;;;;;;774186;179;1527699;-68
2022/05/04 14:31:18;;;;;;;10.60;9.47;;;;;;;;;;772324;181;916689;-69
2022/05/04 14:33:45;;;;;;;10.17;8.90;;;;;;;;;;769001;179;915628;-68
2022/05/04 14:36:11;;;;;;;12.73;10.23;;;;;;;;;;773048;179;923572;-69
2022/05/04 14:38:37;;;;;;;16.83;9.13;;;;;;;;;;760212;179;920644;-69
2022/05/04 14:41:04;;;;;;;15.20;12.50;;;;;;;;;;766170;182;916428;-68
2022/05/04 14:43:29;;;;;;;13.10;9.97;;;;;;;;;;770152;179;919448;-68
2022/05/04 14:45:55;;;;;;;11.73;8.37;;;;;;;;;;781414;177;915637;-68
2022/05/04 14:48:20;;;;;;;16.77;10.67;;;;;;;;;;762124;182;918596;-67
2022/05/04 14:50:46;;;;;;;12.60;10.00;;;;;;;;;;758610;182;954921;-69
2022/05/04 14:53:12;;;;;;;18.33;11.10;;;;;;;;;;775961;180;748104;-69